MET'MAP v2.0
soon released !

Expected late october,
this new version will be
more efficient, smarter,
and hosted on a brand new
server x3 powerfull...
...and still free !


Not compatible ?
Try the mobile version !

LOG IN : | Subscribe | Disclaimer | Who is Orbifly ? |
ICAO code :
Legend : VFR Marginal VFR IFR Intensive IFR Very Intensive IFR
Visi :
Ceiling :
>= 8 km
>= 3000ft
5 to 8 km
1000 to 3000 ft
1500m to 5 km
500 to 1000 ft
800 to 1500m
200 to 500 ft
< 800m
< 200 ft

METAR - ETHB Buckeburg Army - 27 May 2020 19:04 UTC
Data Sources :     NOAA   


- Airport Elevation : 230 ft
- No reported NOTAMs.


ETHB - Buckeburg Army

Latest METAR recorded : 2015/08/11 07:47 ETHB 110747Z 27005KT 3000 BR SCT004 OVC006 17/16 Q1018 YLO YLO BECMG GRN
TAF TAF ETHB
Valid from the 27 at 17:00 until the 28 at 02:00 UTC


271614Z 2717/2802 33007KT 9999 NSW FEW060 SCT140
TEMPO 2717/2720 35010G20KT 9999 NSW BKN040

Source NOAA


MET'MAP, your aeronautical weather chart ! - Copyright ORBIFLY December 2007

Programming & Development : Alexandra Zaïnal
Co-Developer : Marc-Olivier Méhu
Technical & hardware support : Manuel Goepfert
Concept & Financing : Baudouin d'Aumeries